Time;durP1;ratioP1;P1;durP2;ratioP2;P2;SDS_P1;SDS_P2;PMS_P1;PMS_P2;Temp;Humidity;BMP_temperature;BMP_pressure;BME280_temperature;BME280_humidity;BME280_pressure;Samples;Min_cycle;Max_cycle;Signal;HPM_P1;HPM_P2
2022/05/17 04:30:52;;;;;;;;;6.75;4.25;;;;;21.67;52.27;101515.00;5088185;27;46084;-71
2022/05/17 04:33:17;;;;;;;;;5.00;4.00;;;;;21.66;52.26;101513.25;5070509;28;45471;-71
2022/05/17 04:35:43;;;;;;;;;4.00;4.00;;;;;21.62;52.41;101511.75;5072144;28;45619;-70
2022/05/17 04:38:09;;;;;;;;;6.00;4.50;;;;;21.53;52.42;101508.75;5076366;28;45424;-71
2022/05/17 04:40:35;;;;;;;;;5.50;5.50;;;;;21.52;52.57;101503.44;5076628;28;45798;-70
2022/05/17 04:43:00;;;;;;;;;7.00;5.75;;;;;21.44;52.76;101505.88;5076605;28;45410;-69
2022/05/17 04:45:26;;;;;;;;;4.25;4.25;;;;;21.45;52.88;101518.53;5076140;28;45316;-70
2022/05/17 04:47:52;;;;;;;;;5.00;5.00;;;;;21.33;52.81;101500.44;5076295;28;45374;-71
2022/05/17 04:50:18;;;;;;;;;5.50;5.50;;;;;21.43;52.98;101521.41;5075809;28;45422;-71
2022/05/17 04:52:46;;;;;;;;;4.50;4.50;;;;;21.39;53.06;101524.47;5076178;28;45409;-72
2022/05/17 04:55:12;;;;;;;;;5.00;5.00;;;;;21.36;53.51;101519.25;5075806;28;45619;-70
2022/05/17 04:57:38;;;;;;;;;8.25;6.00;;;;;21.31;53.13;101516.03;5075659;28;46174;-70
2022/05/17 05:00:07;;;;;;;;;6.75;5.25;;;;;21.40;53.36;101523.50;5075757;28;45847;-71
2022/05/17 05:02:32;;;;;;;;;9.50;5.00;;;;;21.43;53.44;101520.53;5075691;28;45428;-71
2022/05/17 05:04:58;;;;;;;;;6.00;5.00;;;;;21.42;53.47;101516.06;5075635;28;45244;-71
2022/05/17 05:07:23;;;;;;;;;7.25;6.00;;;;;21.50;53.49;101530.84;5046917;28;47347;-69
2022/05/17 05:09:48;;;;;;;;;5.00;5.00;;;;;21.53;53.08;101535.16;5051141;28;45301;-70
2022/05/17 05:12:14;;;;;;;;;5.50;5.50;;;;;21.49;53.23;101531.84;5055149;28;45458;-71
2022/05/17 05:14:39;;;;;;;;;4.25;4.25;;;;;21.55;53.54;101541.38;5069774;28;45493;-71
2022/05/17 05:17:05;;;;;;;;;6.00;5.75;;;;;21.58;53.23;101543.00;5054999;28;45364;-69
2022/05/17 05:19:30;;;;;;;;;4.50;4.50;;;;;21.58;53.25;101549.34;5055189;28;45396;-71
2022/05/17 05:21:55;;;;;;;;;7.75;6.25;;;;;21.56;53.21;101554.03;5055627;28;45351;-70
2022/05/17 05:24:21;;;;;;;;;8.25;8.25;;;;;21.52;53.47;101542.47;5055184;28;45542;-78
2022/05/17 05:26:46;;;;;;;;;6.75;6.75;;;;;21.56;53.20;101542.25;5056304;28;45466;-76
2022/05/17 05:29:11;;;;;;;;;8.25;8.25;;;;;21.38;53.42;101515.44;5056555;28;45312;-75
2022/05/17 05:31:38;;;;;;;;;6.00;6.00;;;;;21.47;53.03;101528.34;5065990;27;45231;-76
2022/05/17 05:34:03;;;;;;;;;6.75;6.75;;;;;21.68;53.13;101549.47;5075655;27;45184;-72
2022/05/17 05:36:29;;;;;;;;;8.25;6.75;;;;;21.65;53.08;101544.25;5085093;27;45975;-73
2022/05/17 05:38:55;;;;;;;;;6.00;5.50;;;;;21.71;53.46;101551.94;5095532;27;45291;-71
2022/05/17 05:41:20;;;;;;;;;8.25;6.50;;;;;21.73;53.03;101553.56;5095963;27;45228;-72
2022/05/17 05:43:46;;;;;;;;;6.00;6.00;;;;;21.71;53.90;101550.09;5095571;27;45530;-73
2022/05/17 05:46:11;;;;;;;;;5.50;5.50;;;;;21.77;53.13;101560.53;5095387;27;45467;-71
2022/05/17 05:48:37;;;;;;;;;5.75;5.75;;;;;21.82;53.23;101562.88;5095312;27;45405;-73
2022/05/17 05:51:02;;;;;;;;;6.75;6.75;;;;;21.82;53.09;101571.94;5095820;27;45456;-73
2022/05/17 05:53:28;;;;;;;;;8.50;8.50;;;;;21.84;53.14;101571.81;5095496;27;45397;-73
2022/05/17 05:56:03;;;;;;;;;7.00;7.00;;;;;21.79;52.88;101565.84;5095493;27;46175;-73
2022/05/17 05:58:30;;;;;;;;;8.00;8.00;;;;;21.89;52.84;101575.03;5095406;27;45476;-73
2022/05/17 06:00:55;;;;;;;;;6.00;6.00;;;;;21.97;52.79;101577.16;5095315;27;45321;-74
2022/05/17 06:03:21;;;;;;;;;6.75;5.50;;;;;21.95;52.39;101562.78;5095147;27;45565;-73
2022/05/17 06:05:47;;;;;;;;;8.00;8.00;;;;;22.08;52.39;101571.75;5095394;27;45291;-73
2022/05/17 06:08:13;;;;;;;;;5.25;5.25;;;;;22.16;52.84;101575.59;5095440;27;45207;-73
2022/05/17 06:10:41;;;;;;;;;10.75;8.25;;;;;22.18;52.44;101570.88;5095433;27;45514;-74
2022/05/17 06:13:07;;;;;;;;;5.50;5.00;;;;;22.24;52.66;101573.09;5094812;27;45975;-73
2022/05/17 06:15:32;;;;;;;;;6.75;6.75;;;;;22.21;51.02;101562.41;5084994;27;45511;-74
2022/05/17 06:18:01;;;;;;;;;6.75;6.00;;;;;22.25;51.08;101566.66;5074489;27;45385;-73
2022/05/17 06:20:26;;;;;;;;;5.00;5.00;;;;;22.27;50.93;101574.72;5075063;27;45314;-74
2022/05/17 06:22:52;;;;;;;;;5.75;5.00;;;;;22.23;51.22;101557.69;5073890;27;45457;-75
2022/05/17 06:25:17;;;;;;;;;5.25;5.25;;;;;22.37;49.57;101570.22;5073975;28;45439;-71
2022/05/17 06:27:43;;;;;;;;;12.50;12.50;;;;;22.44;49.66;101581.53;5074678;28;45345;-73
2022/05/17 06:30:10;;;;;;;;;5.00;5.00;;;;;22.42;49.21;101573.44;5075058;27;45318;-72
2022/05/17 06:32:35;;;;;;;;;6.50;6.50;;;;;22.50;48.98;101581.00;5086951;27;47323;-70
2022/05/17 06:35:01;;;;;;;;;5.75;4.75;;;;;22.50;48.84;101576.41;5083992;27;45382;-73
2022/05/17 06:37:26;;;;;;;;;4.00;4.00;;;;;22.59;48.77;101578.38;5074464;27;45249;-72
2022/05/17 06:39:51;;;;;;;;;11.75;11.75;;;;;22.59;48.61;101569.31;5074946;28;45448;-73
2022/05/17 06:42:17;;;;;;;;;4.50;4.50;;;;;22.69;48.22;101572.16;5074488;27;45191;-72
2022/05/17 06:44:42;;;;;;;;;7.00;5.50;;;;;22.64;48.47;101553.38;5074454;27;45323;-75
2022/05/17 06:47:08;;;;;;;;;4.00;4.00;;;;;22.77;47.89;101559.63;5077727;27;45325;-73
2022/05/17 06:49:39;;;;;;;;;0.75;0.75;;;;;22.82;47.32;101562.81;5073249;28;45821;-73
2022/05/17 06:52:06;;;;;;;;;5.00;4.25;;;;;22.85;47.72;101565.31;5074688;27;46483;-72
2022/05/17 06:54:32;;;;;;;;;3.50;3.50;;;;;22.84;47.25;101557.22;5074010;27;46599;-72
2022/05/17 06:57:02;;;;;;;;;5.25;4.75;;;;;22.88;47.20;101559.56;5074265;27;45521;-73
2022/05/17 06:59:29;;;;;;;;;4.00;4.00;;;;;22.96;46.71;101567.16;5074572;27;45236;-73
2022/05/17 07:01:55;;;;;;;;;5.25;4.75;;;;;22.96;46.69;101570.75;5073702;27;45577;-73
2022/05/17 07:04:20;;;;;;;;;4.50;4.50;;;;;23.00;46.44;101568.59;5073970;28;45294;-72
2022/05/17 07:06:47;;;;;;;;;3.25;3.25;;;;;23.02;46.35;101566.59;5070842;27;45971;-74
2022/05/17 07:09:12;;;;;;;;;3.75;3.25;;;;;23.06;46.86;101572.66;5070993;27;45465;-72
2022/05/17 07:14:22;;;;;;;;;1.00;1.00;;;;;23.14;46.66;101554.59;5079250;27;45496;-73
2022/05/17 07:16:47;;;;;;;;;1.25;1.25;;;;;23.24;46.09;101565.63;5073915;28;45401;-74
2022/05/17 07:19:12;;;;;;;;;3.50;3.50;;;;;23.28;46.02;101557.03;5073758;27;45385;-73
2022/05/17 07:21:38;;;;;;;;;4.00;4.00;;;;;23.32;45.47;101560.34;5073684;27;45387;-74
2022/05/17 07:24:03;;;;;;;;;4.00;3.50;;;;;23.35;45.85;101552.75;5073557;28;46019;-73
2022/05/17 07:26:29;;;;;;;;;7.00;4.00;;;;;23.41;45.58;101559.56;5074027;28;45384;-73
2022/05/17 07:28:54;;;;;;;;;2.50;2.50;;;;;23.45;45.76;101562.91;5073861;27;45511;-73
2022/05/17 07:31:20;;;;;;;;;9.00;8.25;;;;;23.43;44.80;101548.50;5073498;27;45358;-74
2022/05/17 07:33:45;;;;;;;;;8.75;3.75;;;;;23.45;44.73;101547.38;5073588;27;45431;-73
2022/05/17 07:36:10;;;;;;;;;5.00;3.50;;;;;23.51;43.75;101556.94;5082239;27;45372;-73
2022/05/17 07:38:36;;;;;;;;;5.00;4.50;;;;;23.56;43.88;101569.19;5096984;27;45881;-74
2022/05/17 07:41:03;;;;;;;;;5.00;4.00;;;;;23.62;44.44;101565.09;5097187;27;45377;-74
2022/05/17 07:43:29;;;;;;;;;4.00;4.00;;;;;23.65;44.46;101564.78;5097506;27;46109;-74
2022/05/17 07:45:54;;;;;;;;;5.25;5.25;;;;;23.70;44.80;101560.66;5097632;27;45322;-73
2022/05/17 07:48:22;;;;;;;;;5.25;4.00;;;;;23.72;43.97;101564.16;5097407;27;45647;-74
2022/05/17 07:50:48;;;;;;;;;2.25;2.25;;;;;23.80;44.23;101566.19;5097273;27;45639;-74
2022/05/17 07:53:16;;;;;;;;;3.50;3.50;;;;;23.79;43.33;101552.63;5096143;27;46161;-73
2022/05/17 07:55:43;;;;;;;;;5.00;4.00;;;;;23.89;43.11;101559.91;5097066;27;45265;-74
2022/05/17 07:58:09;;;;;;;;;4.00;3.25;;;;;23.87;40.97;101553.69;5097480;27;45465;-72
2022/05/17 08:00:36;;;;;;;;;2.50;2.50;;;;;23.98;40.00;101564.56;5088089;27;45449;-74
2022/05/17 08:03:04;;;;;;;;;2.00;2.00;;;;;24.05;40.22;101570.38;5097336;27;45487;-73
2022/05/17 08:05:30;;;;;;;;;3.25;3.25;;;;;24.08;40.82;101561.84;5098070;27;45508;-73
2022/05/17 08:07:55;;;;;;;;;4.00;2.75;;;;;24.11;41.10;101556.97;5097673;27;45483;-73
2022/05/17 08:10:22;;;;;;;;;3.75;3.75;;;;;24.16;39.96;101562.03;5097406;27;45349;-74
2022/05/17 08:12:47;;;;;;;;;4.75;3.00;;;;;24.22;40.34;101567.00;5096482;27;46424;-73
2022/05/17 08:15:14;;;;;;;;;2.00;2.00;;;;;24.19;38.73;101564.50;5089822;27;45506;-74
2022/05/17 08:17:39;;;;;;;;;2.75;2.75;;;;;24.22;39.77;101561.53;5075091;28;45446;-73
2022/05/17 08:20:09;;;;;;;;;3.25;3.25;;;;;24.32;39.05;101569.78;5076447;28;45563;-73
2022/05/17 08:22:38;;;;;;;;;3.00;3.00;;;;;24.36;38.19;101566.63;5076476;27;45592;-74
2022/05/17 08:27:48;;;;;;;;;1.75;1.75;;;;;24.46;37.63;101558.44;5076444;28;45311;-73
2022/05/17 08:30:20;;;;;;;;;2.25;2.25;;;;;24.47;37.36;101562.91;5076220;27;45156;-73
2022/05/17 08:36:04;;;;;;;;;5.25;3.75;;;;;24.65;37.45;101565.84;5077998;27;46566;-72
2022/05/17 08:38:34;;;;;;;;;2.75;2.75;;;;;24.65;36.46;101553.00;5084196;27;45435;-74
2022/05/17 08:41:18;;;;;;;;;4.50;3.00;;;;;24.77;36.45;101564.69;5096626;27;45352;-73
2022/05/17 08:44:02;;;;;;;;;2.00;1.75;;;;;24.82;35.04;101559.66;5096593;27;46324;-73
2022/05/17 08:46:30;;;;;;;;;1.25;1.25;;;;;24.85;33.89;101554.72;5096093;27;45744;-73
2022/05/17 08:49:19;;;;;;;;;2.25;2.25;;;;;24.91;34.55;101556.09;5090276;27;45429;-74
2022/05/17 08:51:47;;;;;;;;;2.75;1.50;;;;;24.96;35.22;101552.91;5076007;27;45362;-73
2022/05/17 08:54:19;;;;;;;;;3.00;3.00;;;;;24.99;34.60;101553.50;5076217;27;45448;-73
2022/05/17 08:56:51;;;;;;;;;3.25;2.25;;;;;25.02;34.16;101546.84;5075723;27;45518;-72
2022/05/17 08:59:23;;;;;;;;;2.00;2.00;;;;;25.00;34.45;101538.78;5076296;28;45569;-75
2022/05/17 09:02:01;;;;;;;;;3.50;3.00;;;;;25.08;33.90;101552.63;5071754;28;45456;-75
2022/05/17 09:04:35;;;;;;;;;3.00;3.00;;;;;25.11;34.34;101552.31;5088029;27;45460;-72
2022/05/17 09:07:11;;;;;;;;;3.00;1.25;;;;;25.16;34.96;101544.53;5087001;27;45382;-73
2022/05/17 09:10:02;;;;;;;;;4.50;3.75;;;;;25.13;34.45;101531.09;5091473;27;45385;-73
2022/05/17 09:12:59;;;;;;;;;6.25;3.25;;;;;25.22;34.71;101543.09;5096005;27;45309;-74
2022/05/17 09:15:25;;;;;;;;;3.75;3.75;;;;;25.23;34.16;101548.44;5086808;27;45526;-73
2022/05/17 09:17:50;;;;;;;;;4.00;3.25;;;;;25.29;35.11;101548.84;5091646;27;45456;-72
2022/05/17 09:20:28;;;;;;;;;7.50;3.75;;;;;25.27;34.47;101538.88;5096252;27;45325;-73
2022/05/17 09:22:53;;;;;;;;;4.00;4.00;;;;;25.32;34.58;101532.97;5095786;27;45292;-73
2022/05/17 09:25:25;;;;;;;;;4.50;4.50;;;;;25.31;35.17;101525.75;5096465;27;45239;-73
2022/05/17 09:27:52;;;;;;;;;4.00;4.00;;;;;25.37;34.61;101536.13;5096993;27;45386;-73
2022/05/17 09:30:27;;;;;;;;;5.25;3.50;;;;;25.41;34.59;101533.97;5096246;27;45256;-72
2022/05/17 09:33:03;;;;;;;;;4.25;3.00;;;;;25.41;34.69;101522.97;5079377;27;45496;-74
2022/05/17 09:35:29;;;;;;;;;2.25;1.75;;;;;25.46;35.09;101527.00;5075995;27;46216;-74
2022/05/17 09:37:58;;;;;;;;;7.00;3.50;;;;;25.47;35.31;101523.25;5095546;27;45344;-74
2022/05/17 09:40:35;;;;;;;;;2.00;2.00;;;;;25.53;34.19;101519.03;5095782;27;45357;-74
2022/05/17 09:43:07;;;;;;;;;4.25;2.00;;;;;25.59;33.47;101530.34;5095597;27;45265;-73
2022/05/17 09:45:50;;;;;;;;;2.50;2.00;;;;;25.62;33.49;101529.16;5095362;27;45223;-74
2022/05/17 09:54:29;;;;;;;;;2.00;1.75;;;;;25.64;31.71;101513.41;5095369;27;45361;-74
2022/05/17 09:57:16;;;;;;;;;4.50;3.25;;;;;25.66;32.06;101516.88;5095233;27;47108;-73
2022/05/17 09:59:43;;;;;;;;;7.25;1.00;;;;;25.73;32.02;101517.16;5094414;27;45388;-72
2022/05/17 10:02:29;;;;;;;;;2.75;1.50;;;;;25.74;32.07;101522.50;5095190;27;45368;-73
2022/05/17 10:04:59;;;;;;;;;1.00;1.00;;;;;25.72;32.71;101510.78;5093604;27;45612;-73
2022/05/17 10:07:30;;;;;;;;;1.00;1.00;;;;;25.76;31.66;101528.72;5084755;27;46754;-74
2022/05/17 10:09:56;;;;;;;;;0.75;0.75;;;;;25.75;32.00;101512.38;5074727;27;45295;-73
2022/05/17 10:12:30;;;;;;;;;1.00;1.00;;;;;25.74;32.02;101497.78;5074400;27;45288;-74
2022/05/17 10:15:04;;;;;;;;;2.75;0.75;;;;;25.82;32.01;101502.50;5079055;27;45583;-73
2022/05/17 10:17:42;;;;;;;;;1.75;0.75;;;;;25.90;32.95;101510.88;5081523;27;45315;-74
2022/05/17 10:20:19;;;;;;;;;5.75;1.75;;;;;25.88;32.30;101501.91;5074576;27;45443;-73
2022/05/17 10:23:05;;;;;;;;;2.00;2.00;;;;;25.92;31.30;101503.34;5074611;28;45390;-73
2022/05/17 10:25:45;;;;;;;;;1.00;1.00;;;;;25.98;31.64;101502.72;5074491;27;45494;-74
2022/05/17 10:28:19;;;;;;;;;2.00;0.75;;;;;26.00;32.10;101496.06;5074019;27;45273;-74
2022/05/17 10:31:17;;;;;;;;;0.50;0.50;;;;;26.05;31.03;101484.59;5077291;27;45471;-74
2022/05/17 10:33:56;;;;;;;;;1.50;0.00;;;;;26.08;30.97;101484.31;5074184;27;45379;-74
2022/05/17 10:36:26;;;;;;;;;1.00;1.00;;;;;26.12;30.79;101491.22;5082914;27;45349;-76
2022/05/17 10:39:21;;;;;;;;;1.25;1.25;;;;;26.15;30.67;101481.81;5094653;27;46236;-74
2022/05/17 10:41:47;;;;;;;;;1.00;1.00;;;;;26.20;30.81;101474.81;5078474;27;45460;-74
2022/05/17 10:44:17;;;;;;;;;2.75;1.75;;;;;26.19;31.16;101475.00;5074426;27;45357;-74
2022/05/17 10:46:48;;;;;;;;;2.00;2.00;;;;;26.19;31.18;101467.63;5074139;27;45318;-73
2022/05/17 10:49:32;;;;;;;;;1.00;1.00;;;;;26.33;31.59;101471.75;5074546;27;45389;-73
2022/05/17 10:52:10;;;;;;;;;1.50;1.50;;;;;26.43;31.66;101466.19;5073325;27;45480;-72
2022/05/17 10:54:54;;;;;;;;;0.25;0.25;;;;;26.50;30.92;101453.53;5074148;27;45383;-75
2022/05/17 10:57:31;;;;;;;;;2.25;2.00;;;;;26.56;31.61;101456.53;5074210;28;45495;-74
2022/05/17 11:00:14;;;;;;;;;2.00;2.00;;;;;26.65;31.72;101454.72;5073969;27;46642;-74
2022/05/17 11:03:21;;;;;;;;;1.25;1.25;;;;;26.74;31.26;101462.03;5073839;27;45456;-74
2022/05/17 11:06:08;;;;;;;;;4.00;2.00;;;;;26.87;30.88;101465.28;5074255;27;45389;-73
2022/05/17 11:09:00;;;;;;;;;2.75;2.75;;;;;26.96;31.00;101450.59;5074001;28;45638;-73
2022/05/17 11:11:42;;;;;;;;;1.00;1.00;;;;;27.07;30.54;101443.94;5074104;28;46211;-74
2022/05/17 11:14:10;;;;;;;;;2.00;2.00;;;;;27.02;30.64;101424.31;5077687;27;45237;-73
2022/05/17 11:16:52;;;;;;;;;2.00;2.00;;;;;27.26;30.48;101443.75;5090728;27;45473;-74
2022/05/17 11:19:24;;;;;;;;;6.75;4.25;;;;;27.42;31.21;101443.84;5077539;27;45265;-73
2022/05/17 11:22:05;;;;;;;;;0.75;0.75;;;;;27.62;31.22;101429.88;5077698;27;46535;-73
2022/05/17 11:24:40;;;;;;;;;1.75;1.75;;;;;27.75;29.92;101427.53;5077449;27;45354;-70
2022/05/17 11:27:23;;;;;;;;;7.25;6.00;;;;;27.90;31.18;101431.41;5077267;28;45377;-73
2022/05/17 11:30:19;;;;;;;;;4.75;4.75;;;;;28.04;31.96;101429.91;5077216;28;45384;-72
2022/05/17 11:33:06;;;;;;;;;6.00;5.00;;;;;28.12;31.33;101435.44;5076803;28;46114;-72
2022/05/17 11:35:31;;;;;;;;;7.00;4.00;;;;;28.19;31.68;101422.72;5078796;27;45381;-71
2022/05/17 11:37:57;;;;;;;;;2.75;2.75;;;;;28.19;30.96;101426.34;5097734;27;45562;-72
2022/05/17 11:40:44;;;;;;;;;3.50;2.50;;;;;28.22;31.75;101426.03;5097721;27;45380;-71
2022/05/17 11:45:56;;;;;;;;;2.75;2.75;;;;;28.24;31.62;101412.91;5079952;27;45519;-70
2022/05/17 11:48:42;;;;;;;;;4.50;4.50;;;;;28.28;31.99;101418.09;5080415;27;45171;-71
2022/05/17 11:51:07;;;;;;;;;2.50;2.50;;;;;28.34;31.85;101414.66;5076952;27;45619;-71
2022/05/17 11:53:44;;;;;;;;;4.50;4.00;;;;;28.48;32.03;101405.75;5093881;27;46291;-70
2022/05/17 11:56:32;;;;;;;;;3.00;3.00;;;;;28.71;32.05;101411.44;5095979;27;45515;-70
2022/05/17 11:58:57;;;;;;;;;4.00;3.00;;;;;28.90;30.60;101408.38;5088711;27;45410;-71
2022/05/17 12:01:31;;;;;;;;;4.50;3.25;;;;;29.00;31.07;101399.91;5075729;28;45344;-71
2022/05/17 12:03:56;;;;;;;;;4.25;3.00;;;;;29.12;31.13;101401.25;5076702;28;45488;-71
2022/05/17 12:06:31;;;;;;;;;3.00;3.00;;;;;29.15;30.92;101396.25;5076535;28;45282;-71
2022/05/17 12:08:56;;;;;;;;;3.00;3.00;;;;;29.08;31.03;101398.00;5076971;27;45301;-71
2022/05/17 12:11:37;;;;;;;;;4.50;3.00;;;;;28.97;30.80;101381.78;5076320;27;45567;-72
2022/05/17 12:14:08;;;;;;;;;3.25;3.25;;;;;29.22;30.62;101390.88;5076441;27;46328;-70
2022/05/17 12:16:35;;;;;;;;;3.75;3.75;;;;;29.35;30.78;101388.44;5087310;27;45259;-70
2022/05/17 12:19:12;;;;;;;;;4.00;4.00;;;;;29.32;30.30;101381.38;5076437;27;45398;-71
2022/05/17 12:21:48;;;;;;;;;6.25;4.00;;;;;29.24;29.88;101375.00;5076753;27;45238;-70
2022/05/17 12:24:25;;;;;;;;;3.75;2.75;;;;;29.19;30.54;101372.75;5075614;27;45475;-71
2022/05/17 12:26:50;;;;;;;;;4.00;4.00;;;;;29.21;30.81;101367.06;5076520;27;45507;-72
2022/05/17 12:32:05;;;;;;;;;4.00;4.00;;;;;29.88;29.79;101368.38;5075220;28;45350;-70
2022/05/17 12:34:30;;;;;;;;;4.50;3.00;;;;;30.17;29.47;101359.44;5076464;27;46283;-71
2022/05/17 12:37:13;;;;;;;;;4.75;3.00;;;;;30.26;28.98;101368.56;5076201;27;45426;-73
2022/05/17 12:45:16;;;;;;;;;2.75;2.75;;;;;30.55;30.10;101352.09;5075217;28;45346;-71
2022/05/17 12:47:47;;;;;;;;;4.50;3.75;;;;;30.94;30.39;101349.16;5075402;27;45365;-71
2022/05/17 12:50:23;;;;;;;;;5.25;4.00;;;;;30.91;29.29;101343.97;5075363;27;45590;-71
2022/05/17 12:52:56;;;;;;;;;6.25;3.50;;;;;30.79;29.46;101351.03;5076003;28;45375;-71
2022/05/17 12:55:32;;;;;;;;;3.00;3.00;;;;;30.59;29.62;101342.38;5075895;27;45358;-69
2022/05/17 12:58:10;;;;;;;;;4.50;4.50;;;;;30.73;30.12;101349.00;5075755;27;45532;-72
2022/05/17 13:00:36;;;;;;;;;2.75;2.75;;;;;31.27;29.62;101346.06;5082852;27;45410;-71
2022/05/17 13:03:24;;;;;;;;;3.00;3.00;;;;;31.31;29.83;101352.91;5095406;27;45424;-70
2022/05/17 13:05:53;;;;;;;;;6.00;4.50;;;;;31.48;29.18;101354.44;5095810;27;47486;-71
2022/05/17 13:08:23;;;;;;;;;5.00;3.00;;;;;31.73;29.74;101350.34;5096050;27;45416;-72
2022/05/17 13:11:18;;;;;;;;;3.00;3.00;;;;;32.17;27.74;101343.84;5096458;27;45510;-71
2022/05/17 13:13:44;;;;;;;;;7.25;3.75;;;;;32.42;28.05;101324.91;5096528;27;45287;-72
2022/05/17 13:16:28;;;;;;;;;3.50;3.50;;;;;32.64;27.53;101330.25;5080642;27;45474;-72
2022/05/17 13:18:56;;;;;;;;;4.00;4.00;;;;;32.81;27.29;101332.75;5074836;27;45741;-72
2022/05/17 13:21:32;;;;;;;;;4.50;3.00;;;;;32.61;27.38;101321.44;5075244;28;45424;-71
2022/05/17 13:24:02;;;;;;;;;2.75;2.75;;;;;32.18;27.95;101312.28;5075745;27;45326;-72
2022/05/17 13:26:45;;;;;;;;;5.00;4.00;;;;;32.38;28.33;101326.38;5073811;28;47213;-72
2022/05/17 13:29:33;;;;;;;;;4.75;3.25;;;;;32.33;27.71;101331.66;5089985;27;45482;-73
2022/05/17 13:32:03;;;;;;;;;4.00;4.00;;;;;32.07;28.99;101330.25;5095125;27;45612;-71
2022/05/17 13:34:35;;;;;;;;;4.50;4.00;;;;;31.99;28.60;101329.53;5079337;27;45551;-74
2022/05/17 13:37:23;;;;;;;;;3.00;3.00;;;;;31.86;28.46;101328.34;5089089;27;46311;-71
2022/05/17 13:39:50;;;;;;;;;3.25;3.25;;;;;31.65;28.99;101331.03;5095536;27;45329;-72
2022/05/17 13:42:26;;;;;;;;;2.50;2.25;;;;;31.66;28.95;101327.22;5094115;27;45529;-72
2022/05/17 13:44:52;;;;;;;;;3.00;2.00;;;;;31.66;29.17;101313.34;5095649;27;45430;-69
2022/05/17 13:47:24;;;;;;;;;4.00;3.00;;;;;31.67;29.67;101311.44;5094603;27;46350;-70
2022/05/17 13:49:50;;;;;;;;;4.50;3.75;;;;;31.46;29.66;101312.22;5095472;27;45561;-71
2022/05/17 13:52:21;;;;;;;;;5.00;5.00;;;;;31.33;30.39;101320.34;5095333;27;45326;-72
2022/05/17 13:54:52;;;;;;;;;4.00;4.00;;;;;31.16;30.20;101308.59;5095245;27;45525;-68
2022/05/17 13:57:20;;;;;;;;;4.75;4.25;;;;;31.06;30.37;101306.06;5095667;27;45316;-72
2022/05/17 13:59:59;;;;;;;;;3.00;3.00;;;;;31.06;31.18;101306.06;5094601;27;45416;-71
2022/05/17 14:02:57;;;;;;;;;3.75;3.75;;;;;31.10;30.65;101299.16;5075416;27;45369;-70
2022/05/17 14:05:30;;;;;;;;;5.25;4.00;;;;;31.09;30.25;101296.56;5074952;27;45305;-72
2022/05/17 14:13:56;;;;;;;;;5.00;5.00;;;;;31.35;29.67;101301.63;5074973;28;45374;-71
2022/05/17 14:16:25;;;;;;;;;4.50;3.25;;;;;31.46;30.42;101295.59;5087043;27;45352;-72
2022/05/17 14:18:52;;;;;;;;;6.25;3.50;;;;;31.51;30.26;101298.63;5074073;27;47356;-73
2022/05/17 14:21:18;;;;;;;;;4.00;4.00;;;;;31.64;29.75;101303.53;5074535;27;45399;-71
2022/05/17 14:23:48;;;;;;;;;3.00;3.00;;;;;31.77;30.31;101292.59;5074899;27;45312;-70
2022/05/17 14:26:14;;;;;;;;;6.00;4.00;;;;;31.80;30.28;101281.13;5074524;27;45519;-70
2022/05/17 14:28:40;;;;;;;;;4.25;4.00;;;;;31.97;29.95;101288.16;5073902;28;45967;-72
2022/05/17 14:31:18;;;;;;;;;3.00;3.00;;;;;32.10;29.50;101285.50;5074049;27;45579;-71
2022/05/17 14:33:44;;;;;;;;;4.00;3.00;;;;;32.06;29.27;101270.31;5074102;27;45706;-72
2022/05/17 14:36:14;;;;;;;;;3.75;3.75;;;;;32.23;28.75;101271.81;5081592;27;45405;-72
2022/05/17 14:38:40;;;;;;;;;6.00;5.00;;;;;32.36;29.41;101267.41;5094732;27;45430;-70
2022/05/17 14:41:05;;;;;;;;;3.25;3.25;;;;;32.50;29.18;101269.22;5087193;27;45341;-70
2022/05/17 14:43:30;;;;;;;;;3.00;3.00;;;;;32.60;28.94;101278.94;5074342;27;45326;-72
2022/05/17 14:45:57;;;;;;;;;2.75;2.25;;;;;32.70;29.04;101278.63;5074777;28;45382;-72
2022/05/17 14:48:24;;;;;;;;;4.50;3.25;;;;;32.67;29.36;101282.63;5077856;28;45592;-73
2022/05/17 14:50:50;;;;;;;;;5.25;4.25;;;;;32.75;28.48;101273.31;5077040;27;45492;-70
2022/05/17 14:53:16;;;;;;;;;5.50;4.00;;;;;32.82;28.71;101277.03;5077921;27;45367;-72
2022/05/17 14:55:41;;;;;;;;;5.00;4.00;;;;;32.63;28.42;101269.34;5077863;27;45550;-70
2022/05/17 14:58:07;;;;;;;;;6.75;4.00;;;;;32.46;29.31;101271.56;5076037;28;45993;-71
2022/05/17 15:00:34;;;;;;;;;4.00;3.75;;;;;32.51;29.36;101273.72;5077386;28;45424;-70
2022/05/17 15:03:06;;;;;;;;;4.00;4.00;;;;;32.58;29.49;101264.41;5077362;27;45390;-71
2022/05/17 15:05:34;;;;;;;;;4.00;2.25;;;;;32.66;29.45;101255.94;5077352;27;45471;-71
2022/05/17 15:08:01;;;;;;;;;4.00;4.00;;;;;32.75;29.62;101256.66;5077538;27;45261;-72
2022/05/17 15:10:28;;;;;;;;;4.75;4.75;;;;;32.83;28.94;101250.09;5077640;27;45210;-70
2022/05/17 15:12:55;;;;;;;;;4.50;4.50;;;;;32.84;29.91;101249.88;5079422;27;45572;-73
2022/05/17 15:15:22;;;;;;;;;3.50;3.50;;;;;32.91;28.66;101239.69;5089803;27;45429;-71
2022/05/17 15:18:09;;;;;;;;;4.25;4.25;;;;;33.03;28.01;101239.94;5077618;27;45406;-71
2022/05/17 15:20:36;;;;;;;;;4.00;3.00;;;;;32.94;28.31;101224.50;5076540;28;45242;-70
2022/05/17 15:23:04;;;;;;;;;4.00;4.00;;;;;33.04;28.81;101228.63;5076876;27;45405;-70
2022/05/17 15:25:29;;;;;;;;;5.75;4.50;;;;;33.02;29.03;101227.13;5076600;27;46065;-71
2022/05/17 15:27:55;;;;;;;;;4.50;4.50;;;;;32.77;27.88;101223.13;5077012;27;45455;-72
2022/05/17 15:30:22;;;;;;;;;4.00;4.00;;;;;32.58;28.38;101228.31;5077049;28;45358;-70
2022/05/17 15:32:48;;;;;;;;;3.50;3.00;;;;;32.59;28.74;101227.25;5076894;27;45334;-71
2022/05/17 15:35:23;;;;;;;;;4.00;4.00;;;;;32.67;28.59;101221.53;5076213;27;45393;-73
2022/05/17 15:37:49;;;;;;;;;4.00;4.00;;;;;32.70;28.99;101214.75;5084496;27;45433;-70
2022/05/17 15:40:15;;;;;;;;;5.00;3.50;;;;;32.81;28.61;101219.75;5096643;27;45394;-71
2022/05/17 15:42:42;;;;;;;;;5.00;4.25;;;;;32.91;28.80;101220.25;5084056;27;45307;-73
2022/05/17 15:45:09;;;;;;;;;5.00;4.75;;;;;32.82;28.93;101204.81;5097211;27;45573;-73
2022/05/17 15:53:23;;;;;;;;;4.75;4.75;;;;;32.68;29.62;101189.94;5097028;27;45375;-73
2022/05/17 15:55:55;;;;;;;;;3.00;3.00;;;;;32.77;29.43;101199.00;5097589;27;45226;-72
2022/05/17 15:58:22;;;;;;;;;4.25;4.25;;;;;32.81;29.31;101203.09;5096050;27;46092;-72
2022/05/17 16:00:49;;;;;;;;;4.25;4.00;;;;;32.72;29.36;101206.22;5097108;27;45431;-72
2022/05/17 16:03:14;;;;;;;;;5.50;4.00;;;;;32.75;29.99;101206.66;5097086;27;45338;-72
2022/05/17 16:05:40;;;;;;;;;9.00;6.00;;;;;32.72;29.58;101195.97;5097521;27;45507;-73
2022/05/17 16:08:12;;;;;;;;;5.50;4.50;;;;;32.71;29.42;101204.50;5097307;27;45329;-73
2022/05/17 16:10:40;;;;;;;;;6.00;4.75;;;;;32.75;29.46;101195.56;5097263;27;45527;-71
2022/05/17 16:13:09;;;;;;;;;4.75;4.00;;;;;32.78;29.34;101208.19;5096880;27;45372;-73
2022/05/17 16:15:38;;;;;;;;;4.25;4.25;;;;;32.84;29.15;101216.53;5086444;27;45431;-73
2022/05/17 16:18:07;;;;;;;;;3.50;3.00;;;;;32.94;28.74;101205.06;5076406;27;47040;-73
2022/05/17 16:20:33;;;;;;;;;4.50;4.50;;;;;32.87;28.81;101210.59;5088324;27;45400;-71
2022/05/17 16:22:59;;;;;;;;;6.50;3.50;;;;;32.93;29.01;101209.75;5078210;27;45568;-73
2022/05/17 16:25:25;;;;;;;;;6.25;4.00;;;;;32.87;28.94;101201.41;5076489;28;45397;-74
2022/05/17 16:27:53;;;;;;;;;4.00;4.00;;;;;32.86;29.14;101208.88;5076321;27;45294;-73
2022/05/17 16:30:22;;;;;;;;;12.00;5.75;;;;;32.69;29.59;101202.78;5076249;28;45322;-72
2022/05/17 16:32:52;;;;;;;;;3.00;3.00;;;;;32.76;29.41;101197.28;5076087;28;45428;-73
2022/05/17 16:35:22;;;;;;;;;3.00;3.00;;;;;32.92;29.65;101196.09;5076495;27;45380;-74
2022/05/17 16:37:49;;;;;;;;;5.00;5.00;;;;;33.09;29.23;101191.06;5083653;27;45394;-72
2022/05/17 16:40:15;;;;;;;;;4.00;4.00;;;;;33.26;29.35;101182.16;5096984;27;45396;-74
2022/05/17 16:42:40;;;;;;;;;5.50;4.00;;;;;33.45;28.97;101183.31;5097090;27;45271;-72
2022/05/17 16:45:06;;;;;;;;;5.50;4.00;;;;;33.63;28.29;101177.16;5096381;27;45548;-73
2022/05/17 16:47:33;;;;;;;;;5.00;3.00;;;;;33.79;28.58;101196.25;5095234;27;46634;-72